Flight Track Log - Related Links

Times and Time Zones

All times are in EDT time to prevent confusion due to time zone crossing. See the AAL1459 flight status page for this flight to view local times or setup timezone preferences in your user account.

Time Position Orientation Groundspeed Altitude Reporting Facility
EDT Latitude Longitude Course Direction KTS MPH feet Rate Location/Type
Tue 07:37:07 PM 41.9520 -87.9010 223° Southwest 179 206 1,200  Level FlightAware ADS-B
Tue 07:37:37 PM 41.9350 -87.9250 226° Southwest 178 205 2,700 2,073 Climbing FlightAware ADS-B
Tue 07:38:02 PM 41.9190 -87.9460 224° Southwest 212 244 3,100 1,527 Climbing FlightAware ADS-B
Tue 07:38:32 PM 41.8950 -87.9770 224° Southwest 244 281 4,100 2,400 Climbing FlightAware ADS-B
Tue 07:39:02 PM 41.8700 -88.0090 224° Southwest 253 291 5,500 2,945 Climbing FlightAware ADS-B
Tue 07:39:27 PM 41.8510 -88.0420 232° Southwest 260 299 6,800 3,150 Climbing FlightAware ADS-B
Tue 07:39:42 PM 41.8480 -88.0630 259° West 256 295 7,600 3,450 Climbing FlightAware ADS-B
Tue 07:40:07 PM 41.8460 -88.1000 266° West 246 283 9,100 2,914 Climbing FlightAware ADS-B
Tue 07:40:52 PM 41.8420 -88.1700 266° West 257 296 11,000 1,976 Climbing FlightAware ADS-B
Tue 07:41:32 PM 41.8370 -88.2390 264° West 297 342 11,900 1,650 Climbing FlightAware ADS-B
Tue 07:42:12 PM 41.8320 -88.3150 265° West 320 368 13,200 2,118 Climbing FlightAware ADS-B
Tue 07:42:57 PM 41.8260 -88.4070 265° West 338 389 14,900 2,267 Climbing FlightAware ADS-B
Tue 07:43:42 PM 41.8190 -88.5050 265° West 352 405 16,600 2,188 Climbing FlightAware ADS-B
Tue 07:44:22 PM 41.8110 -88.5900 263° West 363 418 18,000 2,400 Climbing FlightAware ADS-B
Tue 07:45:02 PM 41.8020 -88.6840 263° West 364 419 19,800 2,118 Climbing FlightAware ADS-B
Tue 07:45:47 PM 41.7940 -88.7830 264° West 381 438 21,000 1,694 Climbing FlightAware ADS-B
Tue 07:46:27 PM 41.7870 -88.8790 264° West 394 453 22,200 2,047 Climbing FlightAware ADS-B
Tue 07:47:12 PM 41.7780 -88.9920 264° West 394 453 23,900 2,047 Climbing FlightAware ADS-B
Tue 07:47:52 PM 41.7770 -89.0860 269° West 394 453 25,100 1,575 Climbing FlightAware ADS-B
Tue 07:48:32 PM 41.7850 -89.1870 276° West 405 466 26,000 1,341 Climbing FlightAware ADS-B
Tue 07:49:17 PM 41.7930 -89.2970 276° West 411 473 27,000 1,341 Climbing FlightAware ADS-B
Tue 07:49:57 PM 41.8020 -89.4000 277° West 417 480 27,900 1,341 Climbing FlightAware ADS-B
Tue 07:50:42 PM 41.8110 -89.5180 276° West 421 484 28,900 1,341 Climbing FlightAware ADS-B
Tue 07:51:22 PM 41.8190 -89.6230 276° West 421 484 29,800 1,500 Climbing FlightAware ADS-B
Tue 07:52:02 PM 41.8270 -89.7250 276° West 419 482 30,900 1,482 Climbing FlightAware ADS-B
Tue 07:52:47 PM 41.8350 -89.8380 275° West 417 480 31,900 1,271 Climbing FlightAware ADS-B
Tue 07:53:27 PM 41.8420 -89.9390 275° West 417 480 32,700 1,200 Climbing FlightAware ADS-B
Tue 07:54:07 PM 41.8500 -90.0450 276° West 415 478 33,500 1,200 Climbing FlightAware ADS-B
Tue 07:54:52 PM 41.8570 -90.1590 275° West 413 475 34,400 1,200 Climbing FlightAware ADS-B
Tue 07:55:32 PM 41.8650 -90.2600 276° West 409 471 35,200 1,059 Climbing FlightAware ADS-B
Tue 07:56:17 PM 41.8720 -90.3700 275° West 406 467 35,900 565 Climbing FlightAware ADS-B
Tue 07:56:57 PM 41.8790 -90.4730 275° West 406 467 36,000 75 Climbing FlightAware ADS-B
Tue 07:57:37 PM 41.8860 -90.5730 275° West 405 466 36,000  Level FlightAware ADS-B
Tue 07:58:17 PM 41.8920 -90.6690 275° West 406 467 36,000  Level FlightAware ADS-B
Tue 07:59:02 PM 41.9000 -90.7910 275° West 407 468 36,000  Level FlightAware ADS-B
Tue 07:59:42 PM 41.9060 -90.8870 275° West 408 470 36,000  Level FlightAware ADS-B
Tue 08:00:27 PM 41.9130 -90.9970 275° West 409 471 36,000  Level FlightAware ADS-B
Tue 08:01:07 PM 41.9190 -91.1020 274° West 410 472 36,000  Level FlightAware ADS-B
Tue 08:01:52 PM 41.9260 -91.2150 275° West 409 471 36,000  Level FlightAware ADS-B
Tue 08:02:32 PM 41.9320 -91.3180 275° West 408 470 36,000  Level FlightAware ADS-B
Tue 08:03:17 PM 41.9390 -91.4340 275° West 407 468 36,000  Level FlightAware ADS-B
Tue 08:03:57 PM 41.9450 -91.5330 275° West 406 467 36,000  Level FlightAware ADS-B
Tue 08:04:37 PM 41.9500 -91.6350 274° West 406 467 36,000  Level FlightAware ADS-B
Tue 08:05:22 PM 41.9570 -91.7450 275° West 407 468 36,000  Level FlightAware ADS-B
Tue 08:06:02 PM 41.9620 -91.8450 274° West 408 470 36,000  Level FlightAware ADS-B
Tue 08:06:42 PM 41.9670 -91.9470 274° West 408 470 36,000  Level FlightAware ADS-B
Tue 08:07:27 PM 41.9730 -92.0610 274° West 409 471 36,000  Level FlightAware ADS-B
Tue 08:08:07 PM 41.9790 -92.1640 275° West 408 470 36,000  Level FlightAware ADS-B
Tue 08:08:52 PM 41.9850 -92.2740 274° West 408 470 36,000  Level FlightAware ADS-B
Tue 08:09:32 PM 41.9900 -92.3730 274° West 407 468 36,000  Level FlightAware ADS-B
Tue 08:10:12 PM 41.9950 -92.4760 274° West 406 467 36,000  Level FlightAware ADS-B
Tue 08:10:57 PM 42.0000 -92.5910 273° West 405 466 36,000  Level FlightAware ADS-B
Tue 08:11:37 PM 42.0050 -92.6910 274° West 405 466 36,000  Level FlightAware ADS-B
Tue 08:12:22 PM 42.0100 -92.8030 273° West 405 466 36,000  Level FlightAware ADS-B
Tue 08:13:02 PM 42.0150 -92.9020 274° West 407 468 36,000  Level FlightAware ADS-B
Tue 08:13:42 PM 42.0190 -93.0030 273° West 408 470 36,000  Level FlightAware ADS-B
Tue 08:14:27 PM 42.0240 -93.1210 273° West 408 470 36,000  Level FlightAware ADS-B
Tue 08:15:07 PM 42.0290 -93.2200 274° West 408 470 36,000  Level FlightAware ADS-B
Tue 08:15:47 PM 42.0330 -93.3200 273° West 410 472 36,000  Level FlightAware ADS-B
Tue 08:16:32 PM 42.0370 -93.4330 273° West 411 473 36,000  Level FlightAware ADS-B
Tue 08:17:12 PM 42.0410 -93.5350 273° West 412 474 36,000  Level FlightAware ADS-B
Tue 08:17:57 PM 42.0460 -93.6550 273° West 415 478 36,000  Level FlightAware ADS-B
Tue 08:18:37 PM 42.0500 -93.7580 273° West 416 479 36,000  Level FlightAware ADS-B
Tue 08:19:17 PM 42.0540 -93.8590 273° West 412 474 36,000  Level FlightAware ADS-B
Tue 08:20:02 PM 42.0580 -93.9740 273° West 413 475 36,000  Level FlightAware ADS-B
Tue 08:20:42 PM 42.0620 -94.0760 273° West 413 475 36,000  Level FlightAware ADS-B
Tue 08:21:27 PM 42.0660 -94.1940 273° West 414 476 36,000  Level FlightAware ADS-B
Tue 08:22:07 PM 42.0690 -94.2950 272° West 415 478 36,000  Level FlightAware ADS-B
Tue 08:22:52 PM 42.0730 -94.4070 273° West 415 478 36,000  Level FlightAware ADS-B
Tue 08:23:32 PM 42.0760 -94.5120 272° West 415 478 36,000  Level FlightAware ADS-B
Tue 08:24:12 PM 42.0790 -94.6150 272° West 415 478 36,000  Level FlightAware ADS-B
Tue 08:24:57 PM 42.0830 -94.7320 273° West 413 475 36,000  Level FlightAware ADS-B
Tue 08:25:37 PM 42.0860 -94.8340 272° West 412 474 36,000  Level FlightAware ADS-B
Tue 08:26:22 PM 42.0890 -94.9520 272° West 412 474 36,000  Level FlightAware ADS-B
Tue 08:27:02 PM 42.0920 -95.0520 272° West 411 473 36,000  Level FlightAware ADS-B
Tue 08:27:42 PM 42.0940 -95.1550 272° West 411 473 36,000  Level FlightAware ADS-B
Tue 08:28:27 PM 42.0970 -95.2630 272° West 412 474 36,000  Level FlightAware ADS-B
Tue 08:29:07 PM 42.1000 -95.3690 272° West 413 475 36,000  Level FlightAware ADS-B
Tue 08:29:52 PM 42.1030 -95.4870 272° West 413 475 36,000  Level FlightAware ADS-B
Tue 08:30:32 PM 42.1050 -95.5900 272° West 414 476 36,000  Level FlightAware ADS-B
Tue 08:31:12 PM 42.1070 -95.6940 272° West 413 475 36,000  Level FlightAware ADS-B
Tue 08:31:57 PM 42.1090 -95.8060 271° West 413 475 36,000  Level FlightAware ADS-B
Tue 08:32:37 PM 42.1110 -95.9030 272° West 413 475 36,000  Level FlightAware ADS-B
Tue 08:33:22 PM 42.1130 -96.0280 271° West 415 478 36,000  Level FlightAware ADS-B
Tue 08:34:02 PM 42.1150 -96.1300 272° West 416 479 36,000  Level FlightAware ADS-B
Tue 08:34:42 PM 42.1170 -96.2350 272° West 415 478 36,000  Level FlightAware ADS-B
Tue 08:35:22 PM 42.1180 -96.3260 271° West 415 478 36,000  Level FlightAware ADS-B
Tue 08:36:02 PM 42.1190 -96.4140 271° West 415 478 36,000  Level FlightAware ADS-B
Tue 08:36:42 PM 42.1200 -96.5020 271° West 415 478 36,000  Level FlightAware ADS-B
Tue 08:37:32 PM 42.1220 -96.6120 271° West 415 478 36,000  Level FlightAware ADS-B
Tue 08:38:12 PM 42.1230 -96.7000 271° West 415 478 36,000  Level FlightAware ADS-B
Tue 08:38:52 PM 42.1240 -96.7880 271° West 415 478 36,000  Level FlightAware ADS-B
Tue 08:39:32 PM 42.1250 -96.8760 271° West 415 478 36,000  Level FlightAware ADS-B
Tue 08:40:12 PM 42.1260 -96.9640 271° West 415 478 36,000  Level FlightAware ADS-B
Tue 08:41:02 PM 42.1280 -97.0740 271° West 415 478 36,000  Level FlightAware ADS-B
Tue 08:41:42 PM 42.1290 -97.1620 271° West 415 478 36,000  Level FlightAware ADS-B
Tue 08:42:22 PM 42.1300 -97.2500 271° West 415 478 36,000  Level FlightAware ADS-B
Tue 08:43:02 PM 42.1310 -97.3380 271° West 415 478 36,000  Level FlightAware ADS-B
Tue 08:43:52 PM 42.1330 -97.4480 271° West 415 478 36,000  Level FlightAware ADS-B
Tue 08:44:32 PM 42.1340 -97.5360 271° West 415 478 36,000  Level FlightAware ADS-B
Tue 08:45:26 PM 42.1322 -97.8692 271° West 412 474 36,000  Level Minneapolis Center
Tue 08:46:28 PM 42.1325 -98.0219 270° West 411 473 36,000  Level Minneapolis Center
Tue 08:47:30 PM 42.1325 -98.1761 270° West 412 474 36,000  Level Minneapolis Center
Tue 08:48:32 PM 42.1314 -98.3319 270° West 416 479 36,000  Level Minneapolis Center
Tue 08:49:34 PM 42.1317 -98.5186 270° West 417 480 36,000  Level Minneapolis Center
Tue 08:50:36 PM 42.1314 -98.6747 270° West 418 481 36,000  Level Minneapolis Center
Tue 08:51:37 PM 42.1300 -98.8308 269° West 418 481 36,000  Level Minneapolis Center
Tue 08:52:39 PM 42.1294 -98.9878 270° West 420 483 36,000  Level Minneapolis Center
Tue 08:53:41 PM 42.1275 -99.1436 269° West 419 482 36,000  Level Minneapolis Center
Tue 08:54:56 PM 42.1242 -99.3603 269° West 417 480 36,000  Level Denver Center
Tue 08:55:57 PM 42.1228 -99.5172 269° West 420 483 36,000  Level Denver Center
Tue 08:56:59 PM 42.1206 -99.6722 269° West 417 480 36,000  Level Denver Center
Tue 08:58:01 PM 42.1186 -99.8331 269° West 413 475 36,000  Level Denver Center
Tue 08:59:02 PM 42.1153 -99.9806 268° West 413 475 36,000  Level Denver Center
Tue 09:00:04 PM 42.1128 -100.1533 269° West 413 475 36,000  Level Denver Center
Tue 09:01:06 PM 42.1100 -100.3019 269° West 415 478 36,000  Level Denver Center
Tue 09:02:07 PM 42.1072 -100.4817 269° West 424 488 36,000  Level Denver Center
Tue 09:03:09 PM 42.0789 -100.6222 255° West 426 490 36,000  Level Denver Center
Tue 09:04:10 PM 42.0364 -100.7600 247° West 417 480 36,000 275 Level Denver Center
Tue 09:10:03 PM 41.7672 -101.6330 247° West 415 478 37,900 322 Climbing FlightAware ADS-B
Tue 09:10:23 PM 41.7525 -101.6790 247° West 415 478 38,000 120 Climbing FlightAware ADS-B
Tue 09:10:53 PM 41.7265 -101.7480 243° Southwest 415 478 38,000  Level FlightAware ADS-B
Tue 09:11:23 PM 41.6999 -101.8180 243° Southwest 416 479 38,000  Level FlightAware ADS-B
Tue 09:11:56 PM 41.6713 -101.8920 243° Southwest 415 478 38,000  Level FlightAware ADS-B
Tue 09:12:26 PM 41.6450 -101.9620 243° Southwest 415 478 38,000  Level FlightAware ADS-B
Tue 09:12:58 PM 41.6181 -102.0340 243° Southwest 414 476 38,000  Level FlightAware ADS-B
Tue 09:13:28 PM 41.5925 -102.1030 244° Southwest 413 475 38,000  Level FlightAware ADS-B
Tue 09:13:45 PM 41.5784 -102.1410 244° Southwest 413 475 38,000  Level FlightAware ADS-B
Tue 09:14:09 PM 41.5604 -102.1990 247° West 414 476 38,000  Level FlightAware ADS-B
Tue 09:14:44 PM 41.5404 -102.2840 253° West 413 475 38,000  Level FlightAware ADS-B
Tue 09:15:14 PM 41.5239 -102.3570 253° West 413 475 38,000  Level FlightAware ADS-B
Tue 09:15:27 PM 41.5174 -102.3880 254° West 413 475 38,000  Level FlightAware ADS-B
Tue 09:15:34 PM 41.5149 -102.4040 258° West 414 476 38,000  Level FlightAware ADS-B
Tue 09:16:04 PM 41.5124 -102.4800 268° West 415 478 38,000  Level FlightAware ADS-B
Tue 09:16:35 PM 41.5125 -102.5590 270° West 416 479 38,000  Level FlightAware ADS-B
Tue 09:17:06 PM 41.5129 -102.6400 270° West 416 479 38,000  Level FlightAware ADS-B
Tue 09:17:37 PM 41.5128 -102.7190 270° West 418 481 38,000  Level FlightAware ADS-B
Tue 09:18:07 PM 41.5130 -102.7920 270° West 421 484 38,000  Level FlightAware ADS-B
Tue 09:18:35 PM 41.5122 -102.8700 269° West 421 484 38,000  Level FlightAware ADS-B
Tue 09:19:07 PM 41.5117 -102.9530 270° West 422 486 38,000  Level FlightAware ADS-B
Tue 09:19:38 PM 41.5111 -103.0340 269° West 422 486 38,000  Level FlightAware ADS-B
Tue 09:20:08 PM 41.5105 -103.1120 269° West 422 486 38,000  Level FlightAware ADS-B
Tue 09:20:39 PM 41.5098 -103.1900 269° West 422 486 38,000  Level FlightAware ADS-B
Tue 09:21:09 PM 41.5091 -103.2690 269° West 424 488 38,000  Level FlightAware ADS-B
Tue 09:21:39 PM 41.5084 -103.3480 269° West 425 489 38,000  Level FlightAware ADS-B
Tue 09:22:10 PM 41.5076 -103.4280 269° West 425 489 38,000  Level FlightAware ADS-B
Tue 09:22:40 PM 41.5066 -103.5070 269° West 425 489 38,000  Level FlightAware ADS-B
Tue 09:23:10 PM 41.5058 -103.5870 269° West 426 490 38,000  Level FlightAware ADS-B
Tue 09:23:41 PM 41.5047 -103.6660 269° West 425 489 38,000  Level FlightAware ADS-B
Tue 09:24:11 PM 41.5038 -103.7450 269° West 425 489 38,000  Level FlightAware ADS-B
Tue 09:24:41 PM 41.5028 -103.8250 269° West 424 488 38,000  Level FlightAware ADS-B
Tue 09:25:12 PM 41.5017 -103.9040 269° West 423 487 38,000  Level FlightAware ADS-B
Tue 09:25:42 PM 41.5005 -103.9820 269° West 423 487 38,000  Level FlightAware ADS-B
Tue 09:26:12 PM 41.4993 -104.0610 269° West 422 486 38,000  Level FlightAware ADS-B
Tue 09:26:42 PM 41.4981 -104.1390 269° West 421 484 38,000  Level FlightAware ADS-B
Tue 09:27:13 PM 41.4966 -104.2170 269° West 420 483 38,000  Level FlightAware ADS-B
Tue 09:27:43 PM 41.4953 -104.2960 269° West 420 483 38,000  Level FlightAware ADS-B
Tue 09:28:13 PM 41.4938 -104.3730 269° West 420 483 38,000  Level FlightAware ADS-B
Tue 09:28:44 PM 41.4923 -104.4530 269° West 421 484 38,000  Level FlightAware ADS-B
Tue 09:29:14 PM 41.4908 -104.5320 269° West 422 486 38,000  Level FlightAware ADS-B
Tue 09:29:45 PM 41.4891 -104.6110 268° West 423 487 38,000  Level FlightAware ADS-B
Tue 09:30:17 PM 41.4873 -104.6950 268° West 426 490 38,000  Level FlightAware ADS-B
Tue 09:30:47 PM 41.4856 -104.7740 268° West 428 493 38,000  Level FlightAware ADS-B
Tue 09:31:22 PM 41.4836 -104.8660 268° West 429 494 38,000  Level FlightAware ADS-B
Tue 09:31:53 PM 41.4818 -104.9470 268° West 428 493 38,000  Level FlightAware ADS-B
Tue 09:32:23 PM 41.4799 -105.0250 268° West 424 488 38,000  Level FlightAware ADS-B
Tue 09:32:53 PM 41.4778 -105.1050 268° West 423 487 38,000  Level FlightAware ADS-B
Tue 09:33:29 PM 41.4755 -105.1980 268° West 422 486 38,000  Level FlightAware ADS-B
Tue 09:34:02 PM 41.4732 -105.2830 268° West 422 486 38,000  Level FlightAware ADS-B
Tue 09:35:12 PM 41.4680 -105.4580 268° West 422 486 38,000  Level FlightAware ADS-B
Tue 09:35:52 PM 41.4660 -105.5590 269° West 420 483 38,000  Level FlightAware ADS-B
Tue 09:36:37 PM 41.4620 -105.6820 268° West 418 481 38,000  Level FlightAware ADS-B
Tue 09:37:17 PM 41.4590 -105.7850 268° West 417 480 38,000  Level FlightAware ADS-B
Tue 09:37:57 PM 41.4560 -105.8870 268° West 416 479 38,000  Level FlightAware ADS-B
Tue 09:38:42 PM 41.4520 -105.9980 267° West 414 476 38,000  Level FlightAware ADS-B
Tue 09:39:22 PM 41.4490 -106.1000 268° West 417 480 38,000  Level FlightAware ADS-B
Tue 09:40:02 PM 41.4450 -106.2020 267° West 419 482 38,000  Level FlightAware ADS-B
Tue 09:40:47 PM 41.4410 -106.3200 267° West 417 480 38,000  Level FlightAware ADS-B
Tue 09:41:37 PM 41.4370 -106.4390 267° West 417 480 38,000  Level FlightAware ADS-B
Tue 09:42:27 PM 41.4320 -106.5710 267° West 416 479 38,000  Level FlightAware ADS-B
Tue 09:43:07 PM 41.4280 -106.6770 267° West 415 478 38,000  Level FlightAware ADS-B
Tue 09:43:42 PM 41.4250 -106.7550 267° West 415 478 38,000  Level FlightAware ADS-B
Tue 09:44:32 PM 41.4200 -106.8640 267° West 415 478 38,000  Level FlightAware ADS-B
Tue 09:45:12 PM 41.4170 -106.9510 267° West 415 478 38,000  Level FlightAware ADS-B
Tue 09:45:52 PM 41.4140 -107.0380 267° West 415 478 38,000  Level FlightAware ADS-B
Tue 09:46:37 PM 41.4060 -107.2110 267° West 413 475 38,000  Level FlightAware ADS-B
Tue 09:47:17 PM 41.4010 -107.3000 266° West 413 475 38,000  Level FlightAware ADS-B
Tue 09:47:57 PM 41.3970 -107.3870 267° West 413 475 38,000  Level FlightAware ADS-B
Tue 09:48:37 PM 41.3920 -107.4730 266° West 413 475 38,000  Level FlightAware ADS-B
Tue 09:49:17 PM 41.3880 -107.5600 267° West 413 475 38,000  Level FlightAware ADS-B
Tue 09:50:07 PM 41.3820 -107.6680 266° West 413 475 38,000  Level FlightAware ADS-B
Tue 09:50:47 PM 41.3770 -107.7540 266° West 413 475 38,000  Level FlightAware ADS-B
Tue 09:51:27 PM 41.3730 -107.8400 266° West 413 475 38,000  Level FlightAware ADS-B
Tue 09:52:07 PM 41.3680 -107.9270 266° West 413 475 38,000  Level FlightAware ADS-B
Tue 09:52:47 PM 41.3640 -108.0130 266° West 413 475 38,000  Level FlightAware ADS-B
Tue 09:53:37 PM 41.3580 -108.1210 266° West 413 475 38,000  Level FlightAware ADS-B
Tue 09:54:17 PM 41.3540 -108.2070 266° West 413 475 38,000  Level FlightAware ADS-B
Tue 09:54:57 PM 41.3490 -108.2940 266° West 413 475 38,000  Level FlightAware ADS-B
Tue 09:55:47 PM 41.3430 -108.4020 266° West 413 475 38,000  Level FlightAware ADS-B
Tue 09:56:27 PM 41.3390 -108.4880 266° West 413 475 38,000  Level FlightAware ADS-B
Tue 09:56:50 PM 41.3289 -108.7469 266° West 410 472 38,000  Level Salt Lake Center
Tue 09:57:51 PM 41.3206 -108.8928 266° West 410 472 38,000  Level Salt Lake Center
Tue 09:58:52 PM 41.3092 -109.0642 265° West 412 474 38,000  Level Salt Lake Center
Tue 09:59:54 PM 41.2994 -109.2156 265° West 420 483 38,000  Level Salt Lake Center
Tue 10:00:55 PM 41.2911 -109.3636 266° West 418 481 38,000  Level Salt Lake Center
Tue 10:01:56 PM 41.2800 -109.5364 265° West 418 481 38,000  Level Salt Lake Center
Tue 10:02:57 PM 41.2711 -109.6817 265° West 414 476 38,000  Level Salt Lake Center
Tue 10:03:59 PM 41.2614 -109.8258 265° West 412 474 38,000  Level Salt Lake Center
Tue 10:05:00 PM 41.2494 -109.9944 265° West 410 472 38,000  Level Salt Lake Center
Tue 10:10:57 PM 41.1870 -110.8930 265° West 416 479 38,000  Level FlightAware ADS-B
Tue 10:11:32 PM 41.1800 -110.9820 264° West 416 479 38,000  Level FlightAware ADS-B
Tue 10:12:22 PM 41.1710 -111.1000 264° West 416 479 38,000  Level FlightAware ADS-B
Tue 10:13:02 PM 41.1630 -111.2050 264° West 415 478 38,000  Level FlightAware ADS-B
Tue 10:13:42 PM 41.1550 -111.3030 264° West 415 478 38,000  Level FlightAware ADS-B
Tue 10:14:27 PM 41.1460 -111.4200 264° West 415 478 38,000  Level FlightAware ADS-B
Tue 10:15:07 PM 41.1380 -111.5220 264° West 416 479 38,000  Level FlightAware ADS-B
Tue 10:15:47 PM 41.1300 -111.6080 263° West 416 479 38,000  Level FlightAware ADS-B
Tue 10:16:32 PM 41.1200 -111.7410 264° West 415 478 38,000  Level FlightAware ADS-B
Tue 10:17:12 PM 41.1120 -111.8380 264° West 415 478 38,000  Level FlightAware ADS-B
Tue 10:17:57 PM 41.1020 -111.9560 264° West 415 478 38,000  Level FlightAware ADS-B
Tue 10:18:37 PM 41.0930 -112.0600 263° West 415 478 38,000  Level FlightAware ADS-B
Tue 10:19:17 PM 41.0840 -112.1570 263° West 416 479 38,000  Level FlightAware ADS-B
Tue 10:20:02 PM 41.0740 -112.2740 264° West 416 479 38,000  Level FlightAware ADS-B
Tue 10:20:42 PM 41.0660 -112.3710 264° West 415 478 38,000  Level FlightAware ADS-B
Tue 10:21:27 PM 41.0560 -112.4840 263° West 414 476 38,000  Level FlightAware ADS-B
Tue 10:22:07 PM 41.0460 -112.5870 263° West 412 474 38,000  Level FlightAware ADS-B
Tue 10:23:02 PM 41.0300 -112.7170 261° West 411 473 38,000  Level FlightAware ADS-B
Tue 10:23:42 PM 41.0190 -112.8010 260° West 411 473 38,000  Level FlightAware ADS-B
Tue 10:24:22 PM 41.0070 -112.8850 259° West 411 473 38,000  Level FlightAware ADS-B
Tue 10:25:02 PM 40.9960 -112.9700 260° West 411 473 38,000  Level FlightAware ADS-B
Tue 10:25:52 PM 40.9820 -113.0750 260° West 411 473 38,000  Level FlightAware ADS-B
Tue 10:26:32 PM 40.9710 -113.1600 260° West 411 473 38,000  Level FlightAware ADS-B
Tue 10:27:12 PM 40.9600 -113.2440 260° West 411 473 38,000  Level FlightAware ADS-B
Tue 10:27:52 PM 40.9490 -113.3280 260° West 411 473 38,000  Level FlightAware ADS-B
Tue 10:28:32 PM 40.9370 -113.4120 259° West 411 473 38,000  Level FlightAware ADS-B
Tue 10:29:22 PM 40.9230 -113.5180 260° West 411 473 38,000  Level FlightAware ADS-B
Tue 10:30:02 PM 40.9120 -113.6020 260° West 411 473 38,000  Level FlightAware ADS-B
Tue 10:30:42 PM 40.9010 -113.6860 260° West 411 473 38,000  Level FlightAware ADS-B
Tue 10:31:22 PM 40.8900 -113.7710 260° West 411 473 38,000  Level FlightAware ADS-B
Tue 10:32:12 PM 40.8760 -113.8760 260° West 411 473 38,000  Level FlightAware ADS-B
Tue 10:32:35 PM 40.8442 -114.1131 260° West 408 470 38,000  Level Salt Lake Center
Tue 10:33:36 PM 40.8200 -114.2892 260° West 408 470 38,000  Level Salt Lake Center
Tue 10:34:38 PM 40.7981 -114.4378 259° West 412 474 38,000  Level Salt Lake Center
Tue 10:35:39 PM 40.7786 -114.5742 259° West 413 475 38,000  Level Salt Lake Center
Tue 10:36:40 PM 40.7539 -114.7347 259° West 414 476 38,000  Level Salt Lake Center
Tue 10:37:42 PM 40.7328 -114.8847 260° West 417 480 38,000  Level Salt Lake Center
Tue 10:38:43 PM 40.7083 -115.0503 259° West 414 476 38,000  Level Salt Lake Center
Tue 10:39:44 PM 40.6847 -115.1922 258° West 415 478 38,000  Level Salt Lake Center
Tue 10:40:46 PM 40.6631 -115.3339 259° West 414 476 38,000  Level Salt Lake Center
Tue 10:41:47 PM 40.6383 -115.5011 259° West 416 479 38,000  Level Salt Lake Center
Tue 10:42:49 PM 40.6172 -115.6450 259° West 417 480 38,000  Level Salt Lake Center
Tue 10:43:50 PM 40.5900 -115.8117 258° West 417 480 38,000  Level Salt Lake Center
Tue 10:44:51 PM 40.5689 -115.9561 259° West 417 480 38,000  Level Salt Lake Center
Tue 10:45:53 PM 40.5450 -116.0978 258° West 417 480 38,000  Level Salt Lake Center
Tue 10:46:54 PM 40.5194 -116.2661 259° West 420 483 38,000  Level Salt Lake Center
Tue 10:47:56 PM 40.4964 -116.4092 258° West 419 482 38,000  Level Salt Lake Center
Tue 10:48:58 PM 40.4700 -116.5747 258° West 416 479 38,000  Level Salt Lake Center
Tue 10:49:59 PM 40.4469 -116.7181 258° West 418 481 38,000  Level Salt Lake Center
Tue 10:51:00 PM 40.4183 -116.8844 257° West 422 486 38,000  Level Salt Lake Center
Tue 10:52:02 PM 40.3967 -117.0242 259° West 429 494 38,000  Level Salt Lake Center
Tue 10:53:03 PM 40.3686 -117.1894 257° West 421 484 38,000  Level Salt Lake Center
Tue 10:54:04 PM 40.3442 -117.3322 257° West 420 483 38,000  Level Salt Lake Center
Tue 10:55:06 PM 40.3189 -117.4750 257° West 420 483 38,000 -488 Level Salt Lake Center
Tue 10:56:07 PM 40.2908 -117.6417 258° West 420 483 37,000 -927 Descending Salt Lake Center
Tue 10:57:09 PM 40.2642 -117.7906 257° West 434 499 36,100 -976 Descending Salt Lake Center
Tue 10:58:10 PM 40.2336 -117.9683 257° West 447 514 35,000 -1,059 Descending Salt Lake Center
Tue 10:58:34 PM 40.2267 -118.0122 258° West 446 513 34,600 -2,302 Descending Oakland Center
Tue 10:59:36 PM 40.1994 -118.1689 257° West 446 513 31,700 -2,439 Descending Oakland Center
Tue 11:00:37 PM 40.1653 -118.3558 257° West 444 511 29,600 -2,410 Descending Oakland Center
Tue 11:01:38 PM 40.1369 -118.5119 257° West 442 509 26,800 -2,361 Descending Oakland Center
Tue 11:02:39 PM 40.1097 -118.6631 257° West 431 496 24,800 -2,016 Descending Oakland Center
Tue 11:03:40 PM 40.0819 -118.8067 256° West 414 476 22,700 -2,262 Descending Oakland Center
Tue 11:04:41 PM 40.0550 -118.9428 256° West 393 452 20,200 -2,361 Descending Oakland Center
Tue 11:05:42 PM 40.0292 -119.0764 256° West 385 443 17,900 -1,770 Descending Oakland Center
Tue 11:06:43 PM 40.0017 -119.2067 255° West 375 432 16,600 -1,317 Descending Oakland Center
Tue 11:07:45 PM 39.9767 -119.3297 255° West 357 411 15,200 -1,286 Descending Oakland Center
Tue 11:13:57 PM 39.6610 -119.7670 255° West 202 232 7,300 -1,255 Descending FlightAware ADS-B
Tue 11:14:17 PM 39.6430 -119.7670 180° South 205 236 7,000 -400 Descending FlightAware ADS-B
Tue 11:14:42 PM 39.6220 -119.7660 178° South 205 236 7,000 -1,108 Level FlightAware ADS-B
Tue 11:15:22 PM 39.5840 -119.7660 180° South 170 196 5,800 -1,418 Descending FlightAware ADS-B
Tue 11:15:37 PM 39.5790 -119.7660 180° South 163 188 5,700 -720 Descending FlightAware ADS-B
Tue 11:16:12 PM 39.5550 -119.7670 182° South 159 183 5,200 -640 Descending FlightAware ADS-B
Tue 11:16:52 PM 39.5210 -119.7670 180° South 159 183 4,900 -450 Descending FlightAware ADS-B

Login

Don't have an account? Register now (free) for customized features, flight alerts, and more!